Time;durP1;ratioP1;P1;durP2;ratioP2;P2;SDS_P1;SDS_P2;PMS_P1;PMS_P2;Temp;Humidity;BMP_temperature;BMP_pressure;BME280_temperature;BME280_humidity;BME280_pressure;Samples;Min_cycle;Max_cycle;Signal;HPM_P1;HPM_P2
2021/12/09 00:01:47;;;;;;;10.20;5.05;;;;;;;;;;5002607;28;20033;-76
2021/12/09 00:04:16;;;;;;;11.07;4.53;;;;;;;;;;5020275;28;20037;-76
2021/12/09 00:06:43;;;;;;;13.68;5.25;;;;;;;;;;5003168;28;20029;-76
2021/12/09 00:09:11;;;;;;;9.10;4.65;;;;;;;;;;5018511;28;20099;-76
2021/12/09 00:11:45;;;;;;;12.20;6.13;;;;;;;;;;5002085;28;20095;-76
2021/12/09 00:14:13;;;;;;;13.00;7.10;;;;;;;;;;5002191;28;20052;-76
2021/12/09 00:16:39;;;;;;;9.98;5.72;;;;;;;;;;5020050;28;20044;-77
2021/12/09 00:19:06;;;;;;;11.80;4.80;;;;;;;;;;5019459;28;20046;-77
2021/12/09 00:21:32;;;;;;;9.32;5.53;;;;;;;;;;5024500;28;20060;-76
2021/12/09 00:23:58;;;;;;;11.30;5.65;;;;;;;;;;5040043;28;20055;-76
2021/12/09 00:26:24;;;;;;;10.18;5.50;;;;;;;;;;5022493;28;20108;-76
2021/12/09 00:28:50;;;;;;;11.73;6.55;;;;;;;;;;5021373;28;20044;-76
2021/12/09 00:31:18;;;;;;;11.20;5.63;;;;;;;;;;5022641;28;20037;-76
2021/12/09 00:33:45;;;;;;;12.00;6.53;;;;;;;;;;5022676;28;20087;-76
2021/12/09 00:36:14;;;;;;;11.60;6.80;;;;;;;;;;5021274;28;20088;-76
2021/12/09 00:38:41;;;;;;;12.90;5.93;;;;;;;;;;5022789;28;20037;-76
2021/12/09 00:41:08;;;;;;;8.93;6.20;;;;;;;;;;5039188;28;20045;-76
2021/12/09 00:43:35;;;;;;;14.55;6.28;;;;;;;;;;5021130;28;20095;-76
2021/12/09 00:46:01;;;;;;;12.95;6.95;;;;;;;;;;5039369;28;20340;-76
2021/12/09 00:48:27;;;;;;;13.32;6.10;;;;;;;;;;5022760;28;20497;-76
2021/12/09 00:50:54;;;;;;;14.15;6.15;;;;;;;;;;5037518;28;20125;-76
2021/12/09 00:53:21;;;;;;;11.55;6.38;;;;;;;;;;5022650;28;20068;-76
2021/12/09 00:55:47;;;;;;;10.60;5.50;;;;;;;;;;5022242;28;20466;-76
2021/12/09 00:58:13;;;;;;;10.35;6.32;;;;;;;;;;5037688;28;20037;-76
2021/12/09 01:00:39;;;;;;;9.68;5.70;;;;;;;;;;5022861;28;20036;-76
2021/12/09 01:03:05;;;;;;;9.98;5.95;;;;;;;;;;5038797;28;20064;-76
2021/12/09 01:05:31;;;;;;;12.02;7.03;;;;;;;;;;5021061;28;20489;-76
2021/12/09 01:07:57;;;;;;;13.93;6.55;;;;;;;;;;5039390;28;20496;-76
2021/12/09 01:10:23;;;;;;;16.48;7.00;;;;;;;;;;5038345;28;20033;-76
2021/12/09 01:12:49;;;;;;;12.80;7.07;;;;;;;;;;5021323;28;20037;-76
2021/12/09 01:15:16;;;;;;;13.02;5.90;;;;;;;;;;5039442;28;20481;-76
2021/12/09 01:17:43;;;;;;;12.73;6.25;;;;;;;;;;5021744;28;20382;-76
2021/12/09 01:20:10;;;;;;;11.73;6.18;;;;;;;;;;5037711;28;20056;-76
2021/12/09 01:22:41;;;;;;;10.20;6.65;;;;;;;;;;5038627;28;20060;-76
2021/12/09 01:25:08;;;;;;;13.35;6.78;;;;;;;;;;5038934;28;20049;-76
2021/12/09 01:27:35;;;;;;;13.25;6.90;;;;;;;;;;5020766;28;20041;-76
2021/12/09 01:30:08;;;;;;;12.90;6.68;;;;;;;;;;5038798;28;20473;-76
2021/12/09 01:32:34;;;;;;;15.13;6.88;;;;;;;;;;5022826;28;20482;-76
2021/12/09 01:35:00;;;;;;;11.32;6.25;;;;;;;;;;5037919;28;20056;-76
2021/12/09 01:37:26;;;;;;;17.88;7.78;;;;;;;;;;5037750;28;20048;-76
2021/12/09 01:39:52;;;;;;;15.02;7.30;;;;;;;;;;5039225;28;20041;-76
2021/12/09 01:42:20;;;;;;;14.25;7.10;;;;;;;;;;5038409;28;20060;-76
2021/12/09 01:44:46;;;;;;;14.85;7.03;;;;;;;;;;5025373;28;20041;-76
2021/12/09 01:47:12;;;;;;;16.45;8.32;;;;;;;;;;5026204;28;20037;-76
2021/12/09 01:49:38;;;;;;;12.90;7.72;;;;;;;;;;5024489;28;20523;-76
2021/12/09 01:52:04;;;;;;;14.07;7.13;;;;;;;;;;5025199;28;20543;-76
2021/12/09 01:54:30;;;;;;;13.38;6.85;;;;;;;;;;5042771;28;20369;-76
2021/12/09 01:56:56;;;;;;;14.07;7.72;;;;;;;;;;5023982;28;20410;-75
2021/12/09 01:59:22;;;;;;;15.48;6.38;;;;;;;;;;5041846;28;20037;-76
2021/12/09 02:01:48;;;;;;;14.98;7.13;;;;;;;;;;5042078;28;20030;-76
2021/12/09 02:04:14;;;;;;;11.95;7.38;;;;;;;;;;5040387;28;20401;-76
2021/12/09 02:06:42;;;;;;;19.40;7.25;;;;;;;;;;5042157;28;20077;-76
2021/12/09 02:09:09;;;;;;;15.88;7.53;;;;;;;;;;5042055;28;20049;-76
2021/12/09 02:11:35;;;;;;;11.13;6.78;;;;;;;;;;5040532;28;20042;-76
2021/12/09 02:14:01;;;;;;;13.50;7.70;;;;;;;;;;5041862;28;20171;-76
2021/12/09 02:16:27;;;;;;;14.57;7.18;;;;;;;;;;5041492;28;20056;-76
2021/12/09 02:18:53;;;;;;;10.70;6.50;;;;;;;;;;5023771;28;20068;-76
2021/12/09 02:21:29;;;;;;;18.55;8.73;;;;;;;;;;5025283;28;20063;-76
2021/12/09 02:24:00;;;;;;;14.52;8.25;;;;;;;;;;5025486;28;20045;-76
2021/12/09 02:26:28;;;;;;;13.10;7.43;;;;;;;;;;5025101;28;20670;-76
2021/12/09 02:28:54;;;;;;;19.20;7.32;;;;;;;;;;5023707;28;20037;-76
2021/12/09 02:31:22;;;;;;;13.93;6.88;;;;;;;;;;5025036;28;20049;-76
2021/12/09 02:33:48;;;;;;;13.05;7.20;;;;;;;;;;5039532;28;20048;-76
2021/12/09 02:36:14;;;;;;;13.63;7.57;;;;;;;;;;5041659;28;20044;-76
2021/12/09 02:38:44;;;;;;;15.43;7.38;;;;;;;;;;5015269;28;20045;-76
2021/12/09 02:41:17;;;;;;;14.90;7.27;;;;;;;;;;5015583;28;20037;-76
2021/12/09 02:43:45;;;;;;;18.17;8.13;;;;;;;;;;5015895;28;20037;-76
2021/12/09 02:46:11;;;;;;;15.15;7.95;;;;;;;;;;5015504;28;20048;-76
2021/12/09 02:48:37;;;;;;;13.15;7.28;;;;;;;;;;5015610;28;20502;-76
2021/12/09 02:51:05;;;;;;;10.75;7.15;;;;;;;;;;5032067;28;20408;-76
2021/12/09 02:53:31;;;;;;;16.77;8.57;;;;;;;;;;5014688;28;20045;-76
2021/12/09 02:55:57;;;;;;;13.85;7.80;;;;;;;;;;5031824;28;20136;-76
2021/12/09 02:58:23;;;;;;;17.58;7.50;;;;;;;;;;5031787;28;20446;-76
2021/12/09 03:00:57;;;;;;;16.02;7.93;;;;;;;;;;5015256;28;20038;-76
2021/12/09 03:03:24;;;;;;;14.18;7.25;;;;;;;;;;5015278;28;20037;-76
2021/12/09 03:05:57;;;;;;;18.63;8.15;;;;;;;;;;5015452;28;20064;-76
2021/12/09 03:08:34;;;;;;;13.52;7.30;;;;;;;;;;5015403;28;20049;-76
2021/12/09 03:11:11;;;;;;;11.68;7.10;;;;;;;;;;5031874;28;20049;-76
2021/12/09 03:13:38;;;;;;;15.30;7.82;;;;;;;;;;5015088;28;20053;-76
2021/12/09 03:16:04;;;;;;;14.02;6.40;;;;;;;;;;5031516;28;20064;-76
2021/12/09 03:18:31;;;;;;;17.40;7.75;;;;;;;;;;5031384;28;20509;-76
2021/12/09 03:20:57;;;;;;;14.77;7.55;;;;;;;;;;5015082;28;20044;-76
2021/12/09 03:23:25;;;;;;;17.48;8.45;;;;;;;;;;5014737;28;20057;-76
2021/12/09 03:25:51;;;;;;;15.02;8.75;;;;;;;;;;5031253;28;20045;-76
2021/12/09 03:28:18;;;;;;;14.27;8.43;;;;;;;;;;5031148;28;20048;-76
2021/12/09 03:30:44;;;;;;;17.52;8.68;;;;;;;;;;5028269;28;20107;-76
2021/12/09 03:33:10;;;;;;;20.95;8.55;;;;;;;;;;5027917;28;20045;-76
2021/12/09 03:35:36;;;;;;;17.88;8.80;;;;;;;;;;5010884;28;20037;-76
2021/12/09 03:38:05;;;;;;;17.02;8.23;;;;;;;;;;5011113;28;20051;-76
2021/12/09 03:40:31;;;;;;;12.82;7.65;;;;;;;;;;5027609;28;20084;-76
2021/12/09 03:42:57;;;;;;;20.08;8.40;;;;;;;;;;5027823;28;20505;-76
2021/12/09 03:45:23;;;;;;;16.60;8.55;;;;;;;;;;5027368;28;20087;-76
2021/12/09 03:47:49;;;;;;;17.17;8.55;;;;;;;;;;5027150;28;20413;-76
2021/12/09 03:50:17;;;;;;;19.55;8.52;;;;;;;;;;5027440;28;20360;-76
2021/12/09 03:52:43;;;;;;;17.70;8.68;;;;;;;;;;5027290;28;20484;-76
2021/12/09 03:55:09;;;;;;;16.42;8.30;;;;;;;;;;5010703;28;20076;-76
2021/12/09 03:57:35;;;;;;;20.33;8.43;;;;;;;;;;5027568;28;20512;-76
2021/12/09 04:00:02;;;;;;;16.35;8.00;;;;;;;;;;5010696;28;20041;-76
2021/12/09 04:02:28;;;;;;;17.10;7.95;;;;;;;;;;5027245;28;20532;-76
2021/12/09 04:04:54;;;;;;;20.52;8.30;;;;;;;;;;5026855;28;20041;-76
2021/12/09 04:07:20;;;;;;;13.95;8.10;;;;;;;;;;5027195;28;20490;-76
2021/12/09 04:09:46;;;;;;;12.13;8.00;;;;;;;;;;5027019;28;20441;-76
2021/12/09 04:12:14;;;;;;;14.88;8.63;;;;;;;;;;5010187;28;20123;-75
2021/12/09 04:14:40;;;;;;;16.95;8.25;;;;;;;;;;5014099;28;20069;-76
2021/12/09 04:17:06;;;;;;;15.18;8.38;;;;;;;;;;5014097;28;20076;-75
2021/12/09 04:19:32;;;;;;;16.52;8.88;;;;;;;;;;5030250;28;20060;-76
2021/12/09 04:21:58;;;;;;;14.02;8.00;;;;;;;;;;5030143;28;20053;-76
2021/12/09 04:24:24;;;;;;;16.33;8.18;;;;;;;;;;5014158;28;20041;-76
2021/12/09 04:26:51;;;;;;;21.17;9.40;;;;;;;;;;5014174;28;20042;-76
2021/12/09 04:29:18;;;;;;;18.63;8.48;;;;;;;;;;5030602;28;20096;-76
2021/12/09 04:31:44;;;;;;;15.07;8.50;;;;;;;;;;5030247;28;20050;-76
2021/12/09 04:34:11;;;;;;;15.68;9.13;;;;;;;;;;5013835;28;20067;-76
2021/12/09 04:36:38;;;;;;;19.60;9.43;;;;;;;;;;5030077;28;20052;-76
2021/12/09 04:39:04;;;;;;;18.77;9.57;;;;;;;;;;5030051;28;20081;-76
2021/12/09 04:41:30;;;;;;;18.02;10.30;;;;;;;;;;5030232;28;20075;-76
2021/12/09 04:43:57;;;;;;;15.30;9.15;;;;;;;;;;5013810;28;20136;-76
2021/12/09 04:46:23;;;;;;;24.75;10.35;;;;;;;;;;5030180;28;20045;-76
2021/12/09 04:48:49;;;;;;;20.17;8.90;;;;;;;;;;5030152;28;20405;-76
2021/12/09 04:51:15;;;;;;;19.77;8.80;;;;;;;;;;5029983;28;20041;-76
2021/12/09 04:53:41;;;;;;;17.75;9.95;;;;;;;;;;5030207;28;20048;-76
2021/12/09 04:56:08;;;;;;;16.73;9.88;;;;;;;;;;5030339;28;20045;-76
2021/12/09 04:58:34;;;;;;;19.27;9.25;;;;;;;;;;5029896;28;20049;-77
2021/12/09 05:01:01;;;;;;;20.27;9.95;;;;;;;;;;5030126;28;20041;-76
2021/12/09 05:03:27;;;;;;;18.73;9.38;;;;;;;;;;5029913;28;20039;-76
2021/12/09 05:05:54;;;;;;;19.63;8.75;;;;;;;;;;5013771;28;20049;-76
2021/12/09 05:08:21;;;;;;;16.80;9.30;;;;;;;;;;5029863;28;20468;-77
2021/12/09 05:11:11;;;;;;;22.00;9.90;;;;;;;;;;5013736;28;20493;-76
2021/12/09 05:13:39;;;;;;;22.90;10.50;;;;;;;;;;5029909;28;20452;-77
2021/12/09 05:16:06;;;;;;;19.42;9.45;;;;;;;;;;5030076;28;20073;-76
2021/12/09 05:18:35;;;;;;;24.02;10.40;;;;;;;;;;5016185;28;20048;-76
2021/12/09 05:21:01;;;;;;;16.00;9.50;;;;;;;;;;5017229;28;20041;-77
2021/12/09 05:23:28;;;;;;;22.23;9.48;;;;;;;;;;5016913;28;20063;-77
2021/12/09 05:25:54;;;;;;;15.35;8.68;;;;;;;;;;5033471;28;20461;-77
2021/12/09 05:28:27;;;;;;;20.42;10.70;;;;;;;;;;5016941;28;20386;-76
2021/12/09 05:33:38;;;;;;;19.25;9.25;;;;;;;;;;5033424;28;20080;-77
2021/12/09 05:36:04;;;;;;;18.98;10.43;;;;;;;;;;5017061;28;20508;-76
2021/12/09 05:38:30;;;;;;;22.92;8.95;;;;;;;;;;5016758;28;20436;-77
2021/12/09 05:40:56;;;;;;;21.08;10.30;;;;;;;;;;5016760;28;20462;-77
2021/12/09 05:43:22;;;;;;;22.63;8.95;;;;;;;;;;5016658;28;20387;-76
2021/12/09 05:45:49;;;;;;;25.02;10.73;;;;;;;;;;5033289;28;20076;-77
2021/12/09 05:48:15;;;;;;;19.50;10.02;;;;;;;;;;5016739;28;20099;-77
2021/12/09 05:50:42;;;;;;;21.63;10.60;;;;;;;;;;5033119;28;20563;-76
2021/12/09 05:53:08;;;;;;;21.45;9.65;;;;;;;;;;5016661;28;20575;-77
2021/12/09 05:55:34;;;;;;;16.27;8.55;;;;;;;;;;5016558;28;20406;-76
2021/12/09 05:58:00;;;;;;;17.77;9.77;;;;;;;;;;5016353;28;20114;-77
2021/12/09 06:00:26;;;;;;;17.38;10.00;;;;;;;;;;5033293;28;20033;-77
2021/12/09 06:02:52;;;;;;;23.90;10.52;;;;;;;;;;5032827;28;20545;-76
2021/12/09 06:05:19;;;;;;;20.77;9.73;;;;;;;;;;5032884;28;20037;-77
2021/12/09 06:07:45;;;;;;;18.55;10.25;;;;;;;;;;5032976;28;20409;-77
2021/12/09 06:10:11;;;;;;;22.13;10.02;;;;;;;;;;5032720;28;20489;-77
2021/12/09 06:12:37;;;;;;;19.02;9.63;;;;;;;;;;5032799;28;20099;-77
2021/12/09 06:15:04;;;;;;;19.70;9.95;;;;;;;;;;5016130;28;20041;-77
2021/12/09 06:17:30;;;;;;;21.70;9.77;;;;;;;;;;5032841;28;20053;-78
2021/12/09 06:19:57;;;;;;;26.63;9.38;;;;;;;;;;5032823;28;20041;-77
2021/12/09 06:22:23;;;;;;;19.73;10.60;;;;;;;;;;5032615;28;20092;-77
2021/12/09 06:24:49;;;;;;;29.17;10.30;;;;;;;;;;5032888;28;20447;-77
2021/12/09 06:27:15;;;;;;;15.85;9.82;;;;;;;;;;5032356;28;20080;-77
2021/12/09 06:29:41;;;;;;;16.80;9.05;;;;;;;;;;5014748;28;20564;-77
2021/12/09 06:32:07;;;;;;;20.80;9.63;;;;;;;;;;5015901;28;20509;-77
2021/12/09 06:34:34;;;;;;;23.90;10.82;;;;;;;;;;5016028;28;20041;-77
2021/12/09 06:37:00;;;;;;;23.88;10.90;;;;;;;;;;5032359;28;20052;-77
2021/12/09 06:39:26;;;;;;;20.80;10.88;;;;;;;;;;5015692;28;20041;-78
2021/12/09 06:41:52;;;;;;;21.42;10.18;;;;;;;;;;5032083;28;20047;-77
2021/12/09 06:44:18;;;;;;;21.67;10.50;;;;;;;;;;5015616;28;20083;-77
2021/12/09 06:46:44;;;;;;;19.40;9.30;;;;;;;;;;5015455;28;20080;-77
2021/12/09 06:49:10;;;;;;;23.42;10.93;;;;;;;;;;5015774;28;20042;-77
2021/12/09 06:51:36;;;;;;;27.45;11.05;;;;;;;;;;5033295;28;20048;-76
2021/12/09 06:54:02;;;;;;;22.42;9.75;;;;;;;;;;5032922;28;20060;-77
2021/12/09 06:56:30;;;;;;;21.42;9.93;;;;;;;;;;5016576;28;20052;-77
2021/12/09 06:58:56;;;;;;;22.27;10.55;;;;;;;;;;5032609;28;20041;-77
2021/12/09 07:01:22;;;;;;;20.48;10.45;;;;;;;;;;5031793;28;20037;-76
2021/12/09 07:03:50;;;;;;;19.55;11.30;;;;;;;;;;5015198;28;20088;-78
2021/12/09 07:06:17;;;;;;;23.42;11.70;;;;;;;;;;5031730;28;20045;-78
2021/12/09 07:08:48;;;;;;;24.70;10.30;;;;;;;;;;5015052;28;20049;-77
2021/12/09 07:11:18;;;;;;;23.02;11.35;;;;;;;;;;5031800;28;20045;-77
2021/12/09 07:13:45;;;;;;;24.63;11.43;;;;;;;;;;5031627;28;20367;-78
2021/12/09 07:16:11;;;;;;;21.63;11.30;;;;;;;;;;5015139;28;20045;-77
2021/12/09 07:18:38;;;;;;;22.63;11.35;;;;;;;;;;5031385;28;20041;-77
2021/12/09 07:21:05;;;;;;;21.88;10.88;;;;;;;;;;5031205;28;20462;-77
2021/12/09 07:23:31;;;;;;;23.90;10.93;;;;;;;;;;5031299;28;20053;-77
2021/12/09 07:25:57;;;;;;;28.58;11.10;;;;;;;;;;5014808;28;20049;-77
2021/12/09 07:28:23;;;;;;;23.33;11.40;;;;;;;;;;5014813;28;20048;-77
2021/12/09 07:30:49;;;;;;;22.77;10.93;;;;;;;;;;5014968;28;20482;-77
2021/12/09 07:33:15;;;;;;;22.75;10.65;;;;;;;;;;5014644;28;20037;-77
2021/12/09 07:35:43;;;;;;;21.20;12.63;;;;;;;;;;5031636;28;20076;-77
2021/12/09 07:38:09;;;;;;;27.88;12.70;;;;;;;;;;5031277;28;20134;-77
2021/12/09 07:40:36;;;;;;;24.88;12.98;;;;;;;;;;5030742;28;20072;-76
2021/12/09 07:43:02;;;;;;;24.85;12.52;;;;;;;;;;5014424;28;20049;-77
2021/12/09 07:45:28;;;;;;;22.02;12.45;;;;;;;;;;5031020;28;20033;-77
2021/12/09 07:47:54;;;;;;;25.25;10.65;;;;;;;;;;5014362;28;20048;-77
2021/12/09 07:50:21;;;;;;;19.42;10.82;;;;;;;;;;5031420;28;20112;-77
2021/12/09 07:52:50;;;;;;;22.75;11.82;;;;;;;;;;5030823;28;20048;-77
2021/12/09 07:55:17;;;;;;;20.77;11.90;;;;;;;;;;5031126;28;20537;-77
2021/12/09 07:57:43;;;;;;;18.25;9.93;;;;;;;;;;5014338;28;20045;-77
2021/12/09 08:00:13;;;;;;;27.30;11.85;;;;;;;;;;5030677;28;20521;-77
2021/12/09 08:02:40;;;;;;;19.73;11.32;;;;;;;;;;5014255;28;20045;-77
2021/12/09 08:05:07;;;;;;;27.33;11.77;;;;;;;;;;5030882;28;20508;-77
2021/12/09 08:07:33;;;;;;;29.42;12.35;;;;;;;;;;5014066;28;20045;-77
2021/12/09 08:09:59;;;;;;;33.45;12.45;;;;;;;;;;5030474;28;20063;-77
2021/12/09 08:12:25;;;;;;;26.10;12.50;;;;;;;;;;5030572;28;20042;-77
2021/12/09 08:14:51;;;;;;;20.80;10.32;;;;;;;;;;5014180;28;20405;-77
2021/12/09 08:20:00;;;;;;;18.15;10.07;;;;;;;;;;5030416;28;20453;-77
2021/12/09 08:22:26;;;;;;;21.45;11.40;;;;;;;;;;5013690;28;20053;-77
2021/12/09 08:24:56;;;;;;;22.77;11.27;;;;;;;;;;5014135;28;20132;-76
2021/12/09 08:27:23;;;;;;;27.00;12.77;;;;;;;;;;5030808;28;20037;-77
2021/12/09 08:29:49;;;;;;;22.05;11.88;;;;;;;;;;5030397;28;20045;-77
2021/12/09 08:32:15;;;;;;;25.73;12.32;;;;;;;;;;5013996;28;20095;-77
2021/12/09 08:34:41;;;;;;;27.85;11.65;;;;;;;;;;5030541;28;20052;-77
2021/12/09 08:37:07;;;;;;;25.95;11.00;;;;;;;;;;5013660;28;20041;-77
2021/12/09 08:39:33;;;;;;;22.38;10.77;;;;;;;;;;5013699;28;20508;-78
2021/12/09 08:41:59;;;;;;;23.38;10.93;;;;;;;;;;5030126;28;20069;-77
2021/12/09 08:44:25;;;;;;;28.67;11.93;;;;;;;;;;5013648;28;20049;-77
2021/12/09 08:46:51;;;;;;;24.48;10.77;;;;;;;;;;5013929;28;20382;-77
2021/12/09 08:49:17;;;;;;;25.98;10.88;;;;;;;;;;5030031;28;20051;-77
2021/12/09 08:51:43;;;;;;;24.55;10.27;;;;;;;;;;5014058;28;20132;-77
2021/12/09 08:54:09;;;;;;;18.00;9.50;;;;;;;;;;5034364;28;20041;-77
2021/12/09 08:56:36;;;;;;;18.13;8.48;;;;;;;;;;5016999;28;20048;-77
2021/12/09 08:59:04;;;;;;;17.02;9.38;;;;;;;;;;5017840;28;20041;-77
2021/12/09 09:01:31;;;;;;;24.20;10.98;;;;;;;;;;5030020;28;20133;-77
2021/12/09 09:03:57;;;;;;;20.42;9.00;;;;;;;;;;5013913;28;20060;-77
2021/12/09 09:06:23;;;;;;;20.63;10.98;;;;;;;;;;5013882;28;20041;-77
2021/12/09 09:08:55;;;;;;;19.65;9.82;;;;;;;;;;5013906;28;20041;-77
2021/12/09 09:11:21;;;;;;;21.58;10.52;;;;;;;;;;5013979;28;20049;-77
2021/12/09 09:13:47;;;;;;;22.75;11.85;;;;;;;;;;5013768;28;20171;-76
2021/12/09 09:16:13;;;;;;;19.58;9.40;;;;;;;;;;5013834;28;20056;-77
2021/12/09 09:18:39;;;;;;;20.10;9.85;;;;;;;;;;5029950;28;20057;-78
2021/12/09 09:21:05;;;;;;;24.77;11.00;;;;;;;;;;5030289;28;20049;-77
2021/12/09 09:23:31;;;;;;;18.33;9.35;;;;;;;;;;5030098;28;20520;-77
2021/12/09 09:25:57;;;;;;;20.35;9.35;;;;;;;;;;5016209;28;20041;-78
2021/12/09 09:28:23;;;;;;;22.45;9.65;;;;;;;;;;5040653;28;20513;-78
2021/12/09 09:30:53;;;;;;;19.35;10.57;;;;;;;;;;5038843;28;20176;-77
2021/12/09 09:33:21;;;;;;;14.77;8.88;;;;;;;;;;5023477;28;20049;-77
2021/12/09 09:35:47;;;;;;;19.60;10.45;;;;;;;;;;5022238;28;20113;-77
2021/12/09 09:38:14;;;;;;;16.77;9.13;;;;;;;;;;5023807;28;20045;-77
2021/12/09 09:40:52;;;;;;;20.48;9.93;;;;;;;;;;5037184;28;20115;-77
2021/12/09 09:43:43;;;;;;;18.65;8.57;;;;;;;;;;5037399;28;20044;-77
2021/12/09 09:46:11;;;;;;;19.00;8.73;;;;;;;;;;5038913;28;20545;-78
2021/12/09 09:48:37;;;;;;;19.10;9.20;;;;;;;;;;5039826;28;20087;-77
2021/12/09 09:51:05;;;;;;;19.48;8.80;;;;;;;;;;5037899;28;20056;-77
2021/12/09 09:53:31;;;;;;;19.40;9.15;;;;;;;;;;5037843;28;20033;-77
2021/12/09 09:55:57;;;;;;;15.50;7.93;;;;;;;;;;5022424;28;20052;-77
2021/12/09 09:58:25;;;;;;;20.55;8.80;;;;;;;;;;5021320;28;20502;-77
2021/12/09 10:00:52;;;;;;;21.33;9.32;;;;;;;;;;5037732;28;20041;-77
2021/12/09 10:03:18;;;;;;;12.27;7.82;;;;;;;;;;5022609;28;20036;-78
2021/12/09 10:05:48;;;;;;;18.90;8.07;;;;;;;;;;5020991;28;20072;-77
2021/12/09 10:08:15;;;;;;;13.85;8.15;;;;;;;;;;5037240;28;20049;-77
2021/12/09 10:10:42;;;;;;;16.30;7.95;;;;;;;;;;5020525;28;20048;-77
2021/12/09 10:13:09;;;;;;;16.08;8.63;;;;;;;;;;5040006;28;20049;-76
2021/12/09 10:15:38;;;;;;;15.35;7.47;;;;;;;;;;5039710;28;20139;-77
2021/12/09 10:18:04;;;;;;;15.05;7.72;;;;;;;;;;5020397;28;20045;-77
2021/12/09 10:20:44;;;;;;;17.73;8.68;;;;;;;;;;5037410;28;20037;-77
2021/12/09 10:23:32;;;;;;;19.13;7.93;;;;;;;;;;5021291;28;20057;-77
2021/12/09 10:26:13;;;;;;;14.18;7.00;;;;;;;;;;5039083;28;20709;-76
2021/12/09 10:28:41;;;;;;;15.38;7.38;;;;;;;;;;5038299;28;20488;-76
2021/12/09 10:31:15;;;;;;;15.55;7.65;;;;;;;;;;5021030;28;20052;-77
2021/12/09 10:34:06;;;;;;;19.90;6.53;;;;;;;;;;5039634;28;20485;-77
2021/12/09 10:36:44;;;;;;;13.65;6.70;;;;;;;;;;5038298;28;20409;-75
2021/12/09 10:39:30;;;;;;;13.10;6.43;;;;;;;;;;5037902;28;20045;-77
2021/12/09 10:41:57;;;;;;;12.55;7.07;;;;;;;;;;5038200;28;20053;-77
2021/12/09 10:44:30;;;;;;;13.30;6.72;;;;;;;;;;5036771;28;20037;-77
2021/12/09 10:47:06;;;;;;;14.25;6.10;;;;;;;;;;5036763;28;20874;-77
2021/12/09 10:49:39;;;;;;;16.38;5.88;;;;;;;;;;5036674;28;20037;-77
2021/12/09 10:52:27;;;;;;;14.95;7.15;;;;;;;;;;5020361;28;20107;-77
2021/12/09 10:54:54;;;;;;;14.27;6.18;;;;;;;;;;5021385;28;20037;-76
2021/12/09 10:57:28;;;;;;;19.73;7.72;;;;;;;;;;5036030;28;20460;-77
2021/12/09 10:59:54;;;;;;;11.13;6.20;;;;;;;;;;5036362;28;20044;-76
2021/12/09 11:02:20;;;;;;;12.18;6.45;;;;;;;;;;5038033;28;20116;-76
2021/12/09 11:05:04;;;;;;;11.20;6.47;;;;;;;;;;5036386;28;20185;-76
2021/12/09 11:07:31;;;;;;;10.30;6.28;;;;;;;;;;5037376;28;20037;-77
2021/12/09 11:10:17;;;;;;;12.40;5.80;;;;;;;;;;5036063;28;20076;-77
2021/12/09 11:12:48;;;;;;;9.70;6.22;;;;;;;;;;5038346;28;20037;-76
2021/12/09 11:15:15;;;;;;;13.30;6.65;;;;;;;;;;5021571;28;20120;-76
2021/12/09 11:17:45;;;;;;;11.38;6.57;;;;;;;;;;5022476;28;20046;-77
2021/12/09 11:20:11;;;;;;;9.57;5.63;;;;;;;;;;5040069;28;20528;-75
2021/12/09 11:22:38;;;;;;;12.07;6.55;;;;;;;;;;5017408;28;20053;-77
2021/12/09 11:25:06;;;;;;;16.70;7.40;;;;;;;;;;5031426;28;20044;-76
2021/12/09 11:27:34;;;;;;;17.50;7.40;;;;;;;;;;5014822;28;20044;-76
2021/12/09 11:30:12;;;;;;;12.75;6.05;;;;;;;;;;5014780;28;20037;-75
2021/12/09 11:32:46;;;;;;;15.10;6.72;;;;;;;;;;5014971;28;20055;-75
2021/12/09 11:35:19;;;;;;;14.48;6.65;;;;;;;;;;5031462;28;20041;-74
2021/12/09 11:37:54;;;;;;;16.00;7.10;;;;;;;;;;5031138;28;20159;-76
2021/12/09 11:40:27;;;;;;;17.58;8.60;;;;;;;;;;5031547;28;20124;-75
2021/12/09 11:42:57;;;;;;;13.27;6.65;;;;;;;;;;5014604;28;20033;-75
2021/12/09 11:45:26;;;;;;;17.95;6.68;;;;;;;;;;5014361;28;20041;-76
2021/12/09 11:47:53;;;;;;;19.40;7.55;;;;;;;;;;5032794;28;20041;-76
2021/12/09 11:50:20;;;;;;;15.07;7.22;;;;;;;;;;5039231;28;20030;-76
2021/12/09 11:52:47;;;;;;;12.88;6.68;;;;;;;;;;5024346;28;20103;-76
2021/12/09 11:55:15;;;;;;;16.67;7.60;;;;;;;;;;5024770;28;20084;-76
2021/12/09 11:57:50;;;;;;;16.45;7.90;;;;;;;;;;5039424;28;20045;-75
2021/12/09 12:12:20;;;;;;;18.27;7.75;;;;;;;;;;5041186;28;20084;-75
2021/12/09 12:14:49;;;;;;;22.73;8.35;;;;;;;;;;5023306;28;20750;-75
2021/12/09 12:17:42;;;;;;;15.45;7.00;;;;;;;;;;5039891;28;20090;-75
2021/12/09 12:20:20;;;;;;;16.00;6.53;;;;;;;;;;5038117;28;20045;-76
2021/12/09 12:28:28;;;;;;;20.13;7.88;;;;;;;;;;5040991;28;20048;-76
2021/12/09 12:34:23;;;;;;;15.75;8.52;;;;;;;;;;5039776;28;20124;-76
2021/12/09 12:40:01;;;;;;;18.42;8.40;;;;;;;;;;5038747;28;20052;-76
2021/12/09 12:43:09;;;;;;;13.23;6.55;;;;;;;;;;5035644;28;20029;-76
2021/12/09 12:48:17;;;;;;;17.17;7.90;;;;;;;;;;5029921;28;20165;-76
2021/12/09 12:50:40;;;;;;;18.15;7.70;;;;;;;;;;5029065;28;20049;-75
2021/12/09 12:53:24;;;;;;;15.13;8.40;;;;;;;;;;5030012;28;20136;-75
2021/12/09 12:56:09;;;;;;;21.52;8.68;;;;;;;;;;5013237;28;20457;-76
2021/12/09 12:58:35;;;;;;;16.95;7.68;;;;;;;;;;5029808;28;20037;-75
2021/12/09 13:01:17;;;;;;;14.07;8.65;;;;;;;;;;5029472;28;20048;-75
2021/12/09 13:03:50;;;;;;;13.82;8.07;;;;;;;;;;5013843;28;20474;-76
2021/12/09 13:06:38;;;;;;;21.05;8.50;;;;;;;;;;5013337;28;20064;-75
2021/12/09 13:09:23;;;;;;;22.55;8.60;;;;;;;;;;5029452;28;20048;-76
2021/12/09 13:12:00;;;;;;;20.60;8.50;;;;;;;;;;5013432;28;20042;-74
2021/12/09 13:14:31;;;;;;;17.75;8.73;;;;;;;;;;5013155;28;20195;-75
2021/12/09 13:17:26;;;;;;;;;;;;;;;;;;5030517;28;20544;-75
2021/12/09 13:20:05;;;;;;;16.33;8.18;;;;;;;;;;5028667;28;20491;-76
2021/12/09 13:22:38;;;;;;;19.65;8.70;;;;;;;;;;5029415;28;20159;-76
2021/12/09 13:25:17;;;;;;;21.58;8.65;;;;;;;;;;5013079;28;20042;-76
2021/12/09 13:27:51;;;;;;;16.33;8.25;;;;;;;;;;5012968;28;20504;-76
2021/12/09 13:47:07;;;;;;;12.70;7.18;;;;;;;;;;5032708;28;20436;-76
2021/12/09 13:54:58;;;;;;;22.90;8.82;;;;;;;;;;5052773;28;20493;-76
2021/12/09 13:57:32;;;;;;;16.50;7.38;;;;;;;;;;5036332;28;20072;-75
2021/12/09 13:59:58;;;;;;;23.08;9.23;;;;;;;;;;5052556;28;20059;-74
2021/12/09 14:02:26;;;;;;;20.83;9.52;;;;;;;;;;5052824;28;20051;-75
2021/12/09 14:04:53;;;;;;;16.20;7.65;;;;;;;;;;5052343;28;20044;-75
2021/12/09 14:07:25;;;;;;;21.10;9.13;;;;;;;;;;5052090;28;20037;-75
2021/12/09 14:09:59;;;;;;;16.00;8.27;;;;;;;;;;5052402;28;20040;-75
2021/12/09 14:12:28;;;;;;;24.10;9.30;;;;;;;;;;5052836;28;20091;-76
2021/12/09 14:15:09;;;;;;;18.83;8.68;;;;;;;;;;5036135;28;20056;-76
2021/12/09 14:17:41;;;;;;;25.55;10.18;;;;;;;;;;5036473;28;20484;-75
2021/12/09 14:20:18;;;;;;;20.65;9.50;;;;;;;;;;5052547;28;20573;-76
2021/12/09 14:22:44;;;;;;;16.27;8.52;;;;;;;;;;5052268;28;20135;-76
2021/12/09 14:25:11;;;;;;;17.83;8.00;;;;;;;;;;5035784;28;20095;-76
2021/12/09 14:27:38;;;;;;;18.15;8.60;;;;;;;;;;5036119;28;20045;-74
2021/12/09 14:30:08;;;;;;;25.50;8.35;;;;;;;;;;5052472;28;20115;-75
2021/12/09 14:32:34;;;;;;;18.37;8.07;;;;;;;;;;5035695;28;20037;-75
2021/12/09 14:35:02;;;;;;;20.25;8.07;;;;;;;;;;5035344;28;20291;-75
2021/12/09 14:37:28;;;;;;;21.58;8.90;;;;;;;;;;5035606;28;20076;-74
2021/12/09 14:40:02;;;;;;;24.70;9.25;;;;;;;;;;5035862;28;20066;-76
2021/12/09 14:42:30;;;;;;;18.55;8.75;;;;;;;;;;5035450;28;20518;-75
2021/12/09 14:44:57;;;;;;;21.65;9.85;;;;;;;;;;5051594;28;20128;-76
2021/12/09 14:47:24;;;;;;;25.73;10.02;;;;;;;;;;5035353;28;20457;-76
2021/12/09 14:49:51;;;;;;;23.50;9.60;;;;;;;;;;5034166;28;20511;-75
2021/12/09 14:52:26;;;;;;;24.30;10.55;;;;;;;;;;5035213;28;20041;-75
2021/12/09 14:54:52;;;;;;;21.73;9.73;;;;;;;;;;5035367;28;20076;-75
2021/12/09 14:57:18;;;;;;;21.85;9.50;;;;;;;;;;5035189;28;20041;-76
2021/12/09 14:59:50;;;;;;;20.92;10.20;;;;;;;;;;5034986;28;20124;-75
2021/12/09 15:02:28;;;;;;;23.35;9.57;;;;;;;;;;5052077;28;20055;-76
2021/12/09 15:05:03;;;;;;;24.60;10.00;;;;;;;;;;5035039;28;20087;-76
2021/12/09 15:10:08;;;;;;;16.77;8.40;;;;;;;;;;5051848;28;20445;-76
2021/12/09 15:12:36;;;;;;;17.17;8.90;;;;;;;;;;5051955;28;20053;-74
2021/12/09 15:15:03;;;;;;;20.60;8.93;;;;;;;;;;5035780;28;20052;-76
2021/12/09 15:17:30;;;;;;;18.75;9.05;;;;;;;;;;5052083;28;20140;-76
2021/12/09 15:20:07;;;;;;;16.80;8.80;;;;;;;;;;5051498;28;20041;-74
2021/12/09 15:22:40;;;;;;;18.70;9.05;;;;;;;;;;5034546;28;20053;-74
2021/12/09 15:25:06;;;;;;;24.33;9.63;;;;;;;;;;5034773;28;20044;-75
2021/12/09 15:27:47;;;;;;;18.08;8.98;;;;;;;;;;5034642;28;20405;-75
2021/12/09 15:30:14;;;;;;;16.17;9.40;;;;;;;;;;5051449;28;20037;-74
2021/12/09 15:32:56;;;;;;;20.05;8.55;;;;;;;;;;5051416;28;20469;-76
2021/12/09 15:35:22;;;;;;;21.73;8.90;;;;;;;;;;5051045;28;20389;-75